createdAt,value
2022-11-18T00:01:08.160Z,68.40
2022-11-18T00:03:35.150Z,68.30
2022-11-18T00:06:02.068Z,68.30
2022-11-18T00:08:28.674Z,68.30
2022-11-18T00:10:55.245Z,68.30
2022-11-18T00:13:40.478Z,68.20
2022-11-18T00:16:10.626Z,68.30
2022-11-18T00:18:37.736Z,68.20
2022-11-18T00:21:10.910Z,68.30
2022-11-18T00:23:37.948Z,68.20
2022-11-18T00:26:04.562Z,68.20
2022-11-18T00:28:31.595Z,68.20
2022-11-18T00:31:08.309Z,68.20
2022-11-18T00:33:36.868Z,68.20
2022-11-18T00:36:03.998Z,68.20
2022-11-18T00:38:30.619Z,68.20
2022-11-18T00:41:01.183Z,68.30
2022-11-18T00:43:27.804Z,68.20
2022-11-18T00:45:54.498Z,68.20
2022-11-18T00:48:21.935Z,68.20
2022-11-18T00:50:49.474Z,68.20
2022-11-18T00:53:16.432Z,68.10
2022-11-18T00:55:43.299Z,68.20
2022-11-18T00:58:10.182Z,68.10
2022-11-18T01:00:36.738Z,68.10
2022-11-18T01:03:03.253Z,68.10
2022-11-18T01:05:29.852Z,68.10
2022-11-18T01:07:56.454Z,68.10
2022-11-18T01:10:23.083Z,68.10
2022-11-18T01:13:08.169Z,68.10
2022-11-18T01:15:41.213Z,68.10
2022-11-18T01:18:07.809Z,68.10
2022-11-18T01:20:34.822Z,68.10
2022-11-18T01:23:01.592Z,68.10
2022-11-18T01:25:28.251Z,68.10
2022-11-18T01:27:55.174Z,68.00
2022-11-18T01:30:22.896Z,68.00
2022-11-18T01:32:49.586Z,68.10
2022-11-18T01:35:16.409Z,68.10
2022-11-18T01:37:43.000Z,68.10
2022-11-18T01:40:11.124Z,68.00
2022-11-18T01:42:38.524Z,68.10
2022-11-18T01:45:09.746Z,68.00
2022-11-18T01:47:49.242Z,68.00
2022-11-18T01:50:19.989Z,68.00
2022-11-18T01:52:51.614Z,68.00
2022-11-18T01:55:29.753Z,68.00
2022-11-18T01:58:07.564Z,68.00
2022-11-18T02:00:34.687Z,68.00
2022-11-18T02:03:02.480Z,67.90
2022-11-18T02:05:30.573Z,68.00
2022-11-18T02:07:59.686Z,68.00
2022-11-18T02:10:26.593Z,68.00
2022-11-18T02:12:54.377Z,68.00
2022-11-18T02:15:47.745Z,68.00
2022-11-18T02:18:39.069Z,68.00
2022-11-18T02:21:26.941Z,67.90
2022-11-18T02:24:06.111Z,68.00
2022-11-18T02:27:23.650Z,68.00
2022-11-18T02:30:04.874Z,68.00
2022-11-18T02:32:55.653Z,67.90
2022-11-18T02:35:27.861Z,68.00
2022-11-18T02:38:17.496Z,68.00
2022-11-18T02:40:52.174Z,67.90
2022-11-18T02:43:27.912Z,68.00
2022-11-18T02:46:00.024Z,67.90
2022-11-18T02:48:29.049Z,68.00
2022-11-18T02:50:56.471Z,68.00
2022-11-18T02:53:25.429Z,68.00
2022-11-18T02:55:53.450Z,68.00
2022-11-18T02:58:21.153Z,68.00
2022-11-18T03:00:59.480Z,68.10
2022-11-18T03:03:32.479Z,68.00
2022-11-18T03:06:23.008Z,68.00
2022-11-18T03:09:02.984Z,68.00
2022-11-18T03:11:33.895Z,68.80
2022-11-18T03:14:14.381Z,68.10
2022-11-18T03:16:53.873Z,68.00
2022-11-18T03:19:42.231Z,68.00
2022-11-18T03:22:16.552Z,68.00
2022-11-18T03:24:50.608Z,68.00
2022-11-18T03:27:24.265Z,67.90
2022-11-18T03:30:12.621Z,68.00
2022-11-18T03:32:43.977Z,67.90
2022-11-18T03:35:16.750Z,68.00
2022-11-18T03:37:44.528Z,67.90
2022-11-18T03:40:21.316Z,67.90
2022-11-18T03:42:56.723Z,67.90
2022-11-18T03:45:33.641Z,67.80
2022-11-18T03:48:12.624Z,67.80
2022-11-18T03:51:06.571Z,68.60
2022-11-18T03:53:36.376Z,67.80
2022-11-18T03:56:15.816Z,67.80
2022-11-18T03:59:11.400Z,67.80
2022-11-18T04:01:53.997Z,67.70
2022-11-18T04:04:21.581Z,67.70
2022-11-18T04:07:00.723Z,67.70
2022-11-18T04:09:33.829Z,67.60
2022-11-18T04:12:05.426Z,67.70
2022-11-18T04:14:35.457Z,67.70
2022-11-18T04:17:26.605Z,67.60
2022-11-18T04:19:53.449Z,67.60
2022-11-18T04:22:20.243Z,67.60
2022-11-18T04:24:47.217Z,67.50
2022-11-18T04:27:14.190Z,67.50
2022-11-18T04:29:40.812Z,67.50
2022-11-18T04:32:07.694Z,67.50
2022-11-18T04:34:34.367Z,67.40
2022-11-18T04:37:01.065Z,67.50
2022-11-18T04:39:27.796Z,67.50
2022-11-18T04:41:57.521Z,67.40
2022-11-18T04:44:29.929Z,67.80
2022-11-18T04:46:57.364Z,67.50
2022-11-18T04:49:24.334Z,67.40
2022-11-18T04:51:51.390Z,67.50
2022-11-18T04:54:18.851Z,67.50
2022-11-18T04:56:49.114Z,67.50
2022-11-18T04:59:17.969Z,67.50
2022-11-18T05:01:44.714Z,67.50
2022-11-18T05:04:15.176Z,67.40
2022-11-18T05:06:41.703Z,67.50
2022-11-18T05:09:08.667Z,67.40
2022-11-18T05:11:53.795Z,67.60
2022-11-18T05:14:20.362Z,67.60
2022-11-18T05:16:46.852Z,67.50
2022-11-18T05:19:13.373Z,67.50
2022-11-18T05:21:39.931Z,67.40
2022-11-18T05:24:06.713Z,67.40
2022-11-18T05:26:33.402Z,66.50
2022-11-18T05:29:00.046Z,66.00
2022-11-18T05:31:26.627Z,66.20
2022-11-18T05:33:53.153Z,66.50
2022-11-18T05:36:20.638Z,66.80
2022-11-18T05:38:47.270Z,67.10
2022-11-18T05:41:33.784Z,67.50
2022-11-18T05:44:00.619Z,67.50
2022-11-18T05:46:27.525Z,69.10
2022-11-18T05:48:54.128Z,68.90
2022-11-18T05:51:20.730Z,69.10
2022-11-18T05:53:51.297Z,69.80
2022-11-18T05:56:17.782Z,70.40
2022-11-18T05:58:44.327Z,70.50
2022-11-18T06:01:11.672Z,70.30
2022-11-18T06:03:39.508Z,70.30
2022-11-18T06:06:07.425Z,70.30
2022-11-18T06:08:36.621Z,70.20
2022-11-18T06:11:03.328Z,70.20
2022-11-18T06:13:33.165Z,70.30
2022-11-18T06:15:59.989Z,70.30
2022-11-18T06:18:28.749Z,70.10
2022-11-18T06:20:57.959Z,70.00
2022-11-18T06:23:24.525Z,70.00
2022-11-18T06:25:51.146Z,70.00
2022-11-18T06:28:17.971Z,70.00
2022-11-18T06:30:44.678Z,70.00
2022-11-18T06:33:11.319Z,70.00
2022-11-18T06:35:37.868Z,70.00
2022-11-18T06:38:04.506Z,70.00
2022-11-18T06:40:34.768Z,69.80
2022-11-18T06:43:26.625Z,70.00
2022-11-18T06:46:13.448Z,69.90
2022-11-18T06:48:40.019Z,69.80
2022-11-18T06:51:07.192Z,70.50
2022-11-18T06:53:34.297Z,69.80
2022-11-18T06:56:04.449Z,69.70
2022-11-18T06:58:31.092Z,69.80
2022-11-18T07:00:57.761Z,69.60
2022-11-18T07:03:24.407Z,69.60
2022-11-18T07:05:50.973Z,69.60
2022-11-18T07:08:17.499Z,69.50
2022-11-18T07:10:51.486Z,69.50
2022-11-18T07:13:18.020Z,69.50
2022-11-18T07:15:44.512Z,69.40
2022-11-18T07:18:11.042Z,69.40
2022-11-18T07:20:37.578Z,69.50
2022-11-18T07:23:04.088Z,69.40
2022-11-18T07:25:30.630Z,69.40
2022-11-18T07:27:58.082Z,69.30
2022-11-18T07:30:24.580Z,69.30
2022-11-18T07:32:51.168Z,69.30
2022-11-18T07:35:18.833Z,69.30
2022-11-18T07:37:46.497Z,69.30
2022-11-18T07:40:13.014Z,69.30
2022-11-18T07:42:42.606Z,69.30
2022-11-18T07:45:12.359Z,69.30
2022-11-18T07:47:38.998Z,69.20
2022-11-18T07:50:05.725Z,69.20
2022-11-18T07:52:32.261Z,69.20
2022-11-18T07:54:58.812Z,69.20
2022-11-18T07:57:25.453Z,69.10
2022-11-18T07:59:52.152Z,69.10
2022-11-18T08:02:18.669Z,69.10
2022-11-18T08:04:45.197Z,69.50
2022-11-18T08:07:11.841Z,69.00
2022-11-18T08:09:38.454Z,69.00
2022-11-18T08:12:05.198Z,68.90
2022-11-18T08:14:31.701Z,68.90
2022-11-18T08:16:58.281Z,68.90
2022-11-18T08:19:24.781Z,68.90
2022-11-18T08:21:51.379Z,68.90
2022-11-18T08:24:17.928Z,68.90
2022-11-18T08:26:45.204Z,68.80
2022-11-18T08:29:11.758Z,68.80
2022-11-18T08:31:38.450Z,68.90
2022-11-18T08:34:06.375Z,68.70
2022-11-18T08:36:34.157Z,68.70
2022-11-18T08:39:01.650Z,68.70
2022-11-18T08:41:32.507Z,68.70
2022-11-18T08:43:59.255Z,68.70
2022-11-18T08:46:25.763Z,68.60
2022-11-18T08:48:52.280Z,68.70
2022-11-18T08:51:18.819Z,68.60
2022-11-18T08:53:45.404Z,68.60
2022-11-18T08:56:16.175Z,68.60
2022-11-18T08:58:42.825Z,68.50
2022-11-18T09:01:09.541Z,68.50
2022-11-18T09:03:36.156Z,68.50
2022-11-18T09:06:09.802Z,68.50
2022-11-18T09:08:41.561Z,68.50
2022-11-18T09:11:09.811Z,68.50
2022-11-18T09:14:14.239Z,68.50
2022-11-18T09:16:27.882Z,68.40
2022-11-18T09:18:55.685Z,68.40
2022-11-18T09:21:22.233Z,68.40
2022-11-18T09:23:48.816Z,68.30
2022-11-18T09:26:16.710Z,68.40
2022-11-18T09:28:43.375Z,68.40
2022-11-18T09:31:11.672Z,68.40
2022-11-18T09:33:38.736Z,68.40
2022-11-18T09:36:05.996Z,68.30
2022-11-18T09:38:32.721Z,68.30
2022-11-18T09:41:05.717Z,68.30
2022-11-18T09:43:35.238Z,68.30
2022-11-18T09:46:08.694Z,68.20
2022-11-18T09:48:55.366Z,68.20
2022-11-18T09:51:25.165Z,68.10
2022-11-18T09:53:51.781Z,68.20
2022-11-18T09:56:27.307Z,68.20
2022-11-18T09:58:54.337Z,68.20
2022-11-18T10:01:21.509Z,68.10
2022-11-18T10:03:48.357Z,68.20
2022-11-18T10:06:19.183Z,68.10
2022-11-18T10:09:05.449Z,68.10
2022-11-18T10:11:50.511Z,68.10
2022-11-18T10:14:18.631Z,68.10
2022-11-18T10:16:45.301Z,68.10
2022-11-18T10:19:12.170Z,68.00
2022-11-18T10:21:41.425Z,68.00
2022-11-18T10:24:13.126Z,68.00
2022-11-18T10:26:40.920Z,67.90
2022-11-18T10:29:09.881Z,68.00
2022-11-18T10:31:37.305Z,68.00
2022-11-18T10:34:03.894Z,68.00
2022-11-18T10:36:32.272Z,68.00
2022-11-18T10:39:09.291Z,68.70
2022-11-18T10:41:44.345Z,68.00
2022-11-18T10:44:27.461Z,68.00
2022-11-18T10:46:54.015Z,68.00
2022-11-18T10:49:20.694Z,68.00
2022-11-18T10:52:05.453Z,67.90
2022-11-18T10:54:31.991Z,68.00
2022-11-18T10:57:10.983Z,68.70
2022-11-18T10:59:51.136Z,68.00
2022-11-18T11:02:18.929Z,68.00
2022-11-18T11:04:46.301Z,67.90
2022-11-18T11:07:17.954Z,68.00
2022-11-18T11:09:45.376Z,67.90
2022-11-18T11:12:17.390Z,67.90
2022-11-18T11:14:43.928Z,67.80
2022-11-18T11:17:15.462Z,67.80
2022-11-18T11:19:45.615Z,67.80
2022-11-18T11:22:12.592Z,67.70
2022-11-18T11:24:39.350Z,67.80
2022-11-18T11:30:18.327Z,67.70
2022-11-18T11:32:44.850Z,67.70
2022-11-18T11:35:17.623Z,67.60
2022-11-18T11:37:55.878Z,67.50
2022-11-18T11:40:29.528Z,67.60
2022-11-18T11:42:59.635Z,67.60
2022-11-18T11:45:35.224Z,67.40
2022-11-18T11:48:10.884Z,67.40
2022-11-18T11:50:59.995Z,67.50
2022-11-18T11:53:41.989Z,67.50
2022-11-18T11:56:22.888Z,67.40
2022-11-18T11:58:58.808Z,67.40
2022-11-18T12:01:37.409Z,67.30
2022-11-18T12:04:06.936Z,67.40
2022-11-18T12:06:33.541Z,67.20
2022-11-18T12:09:21.786Z,67.30
2022-11-18T12:11:55.007Z,67.30
2022-11-18T12:14:21.579Z,67.20
2022-11-18T12:16:54.048Z,67.20
2022-11-18T12:19:21.770Z,67.20
2022-11-18T12:21:54.564Z,67.20
2022-11-18T12:24:27.312Z,67.20
2022-11-18T12:26:53.879Z,67.10
2022-11-18T12:29:20.684Z,67.10
2022-11-18T12:31:57.862Z,67.10
2022-11-18T12:34:27.351Z,67.00
2022-11-18T12:36:54.131Z,67.10
2022-11-18T12:39:23.628Z,67.10
2022-11-18T12:42:08.869Z,67.00
2022-11-18T12:44:35.790Z,67.00
2022-11-18T12:47:03.420Z,67.10
2022-11-18T12:49:29.884Z,67.10
2022-11-18T12:51:57.469Z,67.00
2022-11-18T12:54:34.995Z,67.00
2022-11-18T12:57:03.273Z,66.90
2022-11-18T12:59:32.039Z,66.90
2022-11-18T13:02:02.531Z,66.80
2022-11-18T13:04:29.038Z,66.80
2022-11-18T13:07:00.054Z,66.90
2022-11-18T13:09:29.181Z,66.90
2022-11-18T13:12:00.238Z,66.90
2022-11-18T13:14:52.314Z,66.90
2022-11-18T13:17:54.627Z,66.90
2022-11-18T13:20:29.270Z,66.90
2022-11-18T13:23:15.441Z,66.90
2022-11-18T13:25:45.022Z,66.80
2022-11-18T13:28:18.897Z,66.80
2022-11-18T13:30:52.375Z,66.80
2022-11-18T13:33:18.991Z,66.80
2022-11-18T13:35:45.588Z,66.70
2022-11-18T13:38:24.426Z,66.70
2022-11-18T13:41:08.236Z,66.70
2022-11-18T13:43:35.302Z,66.60
2022-11-18T13:46:04.776Z,66.70
2022-11-18T13:48:32.730Z,66.70
2022-11-18T13:51:00.094Z,66.60
2022-11-18T13:53:26.861Z,66.80
2022-11-18T13:55:56.705Z,66.70
2022-11-18T13:59:10.452Z,66.70
2022-11-18T14:01:28.246Z,66.80
2022-11-18T14:03:59.161Z,66.70
2022-11-18T14:06:25.666Z,66.70
2022-11-18T14:09:02.822Z,66.80
2022-11-18T14:11:36.826Z,66.70
2022-11-18T14:14:03.453Z,66.70
2022-11-18T14:16:31.838Z,66.70
2022-11-18T14:18:58.400Z,66.70
2022-11-18T14:21:32.188Z,66.70
2022-11-18T14:23:59.014Z,66.60
2022-11-18T14:26:29.335Z,66.60
2022-11-18T14:28:57.635Z,66.70
2022-11-18T14:31:25.267Z,66.70
2022-11-18T14:34:10.514Z,66.60
2022-11-18T14:36:37.038Z,66.60
2022-11-18T14:39:25.998Z,66.50
2022-11-18T14:41:53.685Z,66.60
2022-11-18T14:44:21.419Z,66.60
2022-11-18T14:46:55.651Z,66.60
2022-11-18T14:49:23.634Z,66.60
2022-11-18T14:51:53.998Z,66.60
2022-11-18T14:54:26.435Z,66.60
2022-11-18T14:57:03.762Z,66.60
2022-11-18T14:59:30.343Z,66.50
2022-11-18T15:01:57.140Z,66.60
2022-11-18T15:04:25.148Z,66.40
2022-11-18T15:06:51.703Z,66.30
2022-11-18T15:09:18.371Z,66.40
2022-11-18T15:11:44.936Z,66.40
2022-11-18T15:14:11.520Z,66.30
2022-11-18T15:16:38.075Z,66.30
2022-11-18T15:19:05.740Z,66.40
2022-11-18T15:21:32.438Z,66.30
2022-11-18T15:23:59.031Z,66.30
2022-11-18T15:26:35.887Z,66.30
2022-11-18T15:29:03.219Z,66.20
2022-11-18T15:31:29.876Z,66.20
2022-11-18T15:33:59.793Z,66.20
2022-11-18T15:36:28.762Z,66.10
2022-11-18T15:38:55.294Z,66.30
2022-11-18T15:41:21.912Z,66.20
2022-11-18T15:43:49.045Z,66.20
2022-11-18T15:46:19.070Z,66.20
2022-11-18T15:48:45.691Z,66.20
2022-11-18T15:51:12.639Z,66.20
2022-11-18T15:53:39.519Z,66.20
2022-11-18T15:56:24.248Z,66.00
2022-11-18T15:58:56.782Z,66.00
2022-11-18T16:01:24.665Z,65.70
2022-11-18T16:03:51.367Z,65.90
2022-11-18T16:06:18.133Z,66.00
2022-11-18T16:08:44.661Z,66.00
2022-11-18T16:11:33.442Z,65.90
2022-11-18T16:14:04.054Z,65.90
2022-11-18T16:16:31.239Z,66.00
2022-11-18T16:18:58.460Z,65.80
2022-11-18T16:21:25.232Z,65.90
2022-11-18T16:23:54.848Z,65.90
2022-11-18T16:26:21.384Z,65.80
2022-11-18T16:28:47.966Z,65.80
2022-11-18T16:31:33.147Z,65.80
2022-11-18T16:33:59.704Z,65.70
2022-11-18T16:36:27.069Z,65.70
2022-11-18T16:38:53.947Z,65.70
2022-11-18T16:41:32.609Z,65.60
2022-11-18T16:44:00.042Z,65.60
2022-11-18T16:46:27.078Z,65.50
2022-11-18T16:48:53.646Z,65.50
2022-11-18T16:51:21.368Z,65.40
2022-11-18T16:53:52.871Z,65.40
2022-11-18T16:56:23.393Z,65.60
2022-11-18T16:58:49.985Z,65.90
2022-11-18T17:01:20.984Z,65.80
2022-11-18T17:03:50.921Z,65.50
2022-11-18T17:06:17.761Z,65.50
2022-11-18T17:08:44.580Z,65.40
2022-11-18T17:11:11.698Z,56.10
2022-11-18T17:13:39.649Z,56.60
2022-11-18T17:16:10.102Z,59.80
2022-11-18T17:18:37.131Z,61.20
2022-11-18T17:21:06.039Z,60.80
2022-11-18T17:23:32.752Z,61.20
2022-11-18T17:26:00.972Z,61.00
2022-11-18T17:28:31.940Z,61.90
2022-11-18T17:31:04.392Z,62.00
2022-11-18T17:33:31.055Z,61.90
2022-11-18T17:36:02.407Z,62.10
2022-11-18T17:38:30.337Z,62.10
2022-11-18T17:41:41.727Z,62.40
2022-11-18T17:44:09.663Z,62.50
2022-11-18T17:46:38.456Z,62.60
2022-11-18T17:49:10.425Z,63.60
2022-11-18T17:51:37.149Z,62.90
2022-11-18T17:54:03.994Z,63.20
2022-11-18T17:56:30.638Z,63.50
2022-11-18T17:58:57.260Z,63.60
2022-11-18T18:01:24.099Z,63.50
2022-11-18T18:03:50.802Z,63.50
2022-11-18T18:06:17.467Z,63.70
2022-11-18T18:08:44.305Z,64.10
2022-11-18T18:11:12.877Z,65.30
2022-11-18T18:13:58.947Z,65.30
2022-11-18T18:16:26.211Z,66.00
2022-11-18T18:18:53.099Z,66.30
2022-11-18T18:21:20.240Z,66.00
2022-11-18T18:23:47.196Z,66.20
2022-11-18T18:26:13.885Z,66.30
2022-11-18T18:28:40.526Z,66.40
2022-11-18T18:31:08.451Z,66.90
2022-11-18T18:33:36.223Z,66.90
2022-11-18T18:36:04.723Z,67.10
2022-11-18T18:38:32.085Z,67.40
2022-11-18T18:41:02.554Z,67.40
2022-11-18T18:43:29.089Z,68.20
2022-11-18T18:46:20.982Z,67.30
2022-11-18T18:48:47.743Z,66.30
2022-11-18T18:51:14.423Z,66.80
2022-11-18T18:53:41.012Z,67.00
2022-11-18T18:56:07.696Z,67.30
2022-11-18T18:58:34.577Z,67.20
2022-11-18T19:01:07.029Z,67.20
2022-11-18T19:03:33.652Z,67.30
2022-11-18T19:08:48.391Z,67.30
2022-11-18T19:11:34.611Z,67.10
2022-11-18T19:14:02.074Z,67.20
2022-11-18T19:16:28.660Z,67.30
2022-11-18T19:18:56.226Z,67.30
2022-11-18T19:21:22.832Z,67.40
2022-11-18T19:23:49.402Z,66.70
2022-11-18T19:26:16.000Z,66.30
2022-11-18T19:28:42.830Z,66.20
2022-11-18T19:31:10.005Z,66.90
2022-11-18T19:33:37.014Z,67.00
2022-11-18T19:36:07.067Z,67.00
2022-11-18T19:38:36.318Z,67.10
2022-11-18T19:41:04.001Z,67.00
2022-11-18T19:43:30.606Z,65.80
2022-11-18T19:45:57.580Z,65.90
2022-11-18T19:48:24.361Z,66.70
2022-11-18T19:50:51.188Z,66.90
2022-11-18T19:53:33.055Z,67.20
2022-11-18T19:56:00.574Z,66.60
2022-11-18T19:58:27.217Z,66.60
2022-11-18T20:00:54.275Z,67.90
2022-11-18T20:03:20.835Z,67.00
2022-11-18T20:05:53.535Z,67.70
2022-11-18T20:08:20.805Z,67.70
2022-11-18T20:10:47.516Z,67.20
2022-11-18T20:13:14.880Z,66.90
2022-11-18T20:15:41.962Z,66.80
2022-11-18T20:18:08.667Z,66.70
2022-11-18T20:20:35.981Z,66.90
2022-11-18T20:23:02.687Z,67.10
2022-11-18T20:25:29.365Z,67.50
2022-11-18T20:27:56.020Z,67.30
2022-11-18T20:30:22.788Z,67.50
2022-11-18T20:32:49.330Z,67.30
2022-11-18T20:35:16.192Z,67.30
2022-11-18T20:37:42.861Z,67.30
2022-11-18T20:40:09.733Z,67.20
2022-11-18T20:42:54.995Z,67.60
2022-11-18T20:45:21.921Z,67.40
2022-11-18T20:47:48.547Z,67.30
2022-11-18T20:50:15.291Z,67.80
2022-11-18T20:52:41.949Z,67.50
2022-11-18T20:55:08.896Z,67.50
2022-11-18T20:57:35.433Z,67.60
2022-11-18T21:00:02.108Z,67.90
2022-11-18T21:02:31.752Z,67.60
2022-11-18T21:04:58.320Z,66.00
2022-11-18T21:07:25.026Z,65.20
2022-11-18T21:09:51.762Z,65.60
2022-11-18T21:12:18.430Z,65.70
2022-11-18T21:14:45.322Z,65.90
2022-11-18T21:17:11.880Z,66.10
2022-11-18T21:19:38.468Z,66.30
2022-11-18T21:22:05.028Z,66.50
2022-11-18T21:24:32.796Z,66.60
2022-11-18T21:27:00.431Z,66.70
2022-11-18T21:29:28.332Z,66.70
2022-11-18T21:31:55.344Z,66.80
2022-11-18T21:34:22.027Z,66.80
2022-11-18T21:36:54.362Z,67.00
2022-11-18T21:39:22.871Z,67.00
2022-11-18T21:41:54.866Z,67.10
2022-11-18T21:44:22.692Z,67.50
2022-11-18T21:46:49.277Z,66.70
2022-11-18T21:49:15.830Z,67.00
2022-11-18T21:51:43.740Z,67.90
2022-11-18T21:54:11.649Z,67.60
2022-11-18T21:56:38.271Z,67.70
2022-11-18T21:59:05.988Z,68.00
2022-11-18T22:01:33.309Z,68.20
2022-11-18T22:04:01.245Z,69.10
2022-11-18T22:06:32.622Z,68.30
2022-11-18T22:08:59.636Z,68.50
2022-11-18T22:11:26.265Z,68.90
2022-11-18T22:13:53.044Z,69.10
2022-11-18T22:16:22.261Z,69.50
2022-11-18T22:18:55.985Z,69.60
2022-11-18T22:21:23.784Z,69.70
2022-11-18T22:23:50.464Z,69.90
2022-11-18T22:26:18.398Z,70.10
2022-11-18T22:28:45.635Z,70.00
2022-11-18T22:31:22.117Z,70.30
2022-11-18T22:33:49.043Z,70.50
2022-11-18T22:36:16.236Z,70.50
2022-11-18T22:38:43.577Z,70.70
2022-11-18T22:41:31.376Z,70.80
2022-11-18T22:44:00.407Z,70.60
2022-11-18T22:46:30.738Z,70.30
2022-11-18T22:48:57.711Z,70.60
2022-11-18T22:51:24.472Z,70.70
2022-11-18T22:54:04.406Z,70.90
2022-11-18T22:56:37.808Z,71.00
2022-11-18T22:59:04.605Z,71.10
2022-11-18T23:01:31.160Z,71.20
2022-11-18T23:03:57.692Z,71.40
2022-11-18T23:06:24.195Z,71.30
2022-11-18T23:08:50.768Z,71.20
2022-11-18T23:11:39.531Z,71.40
2022-11-18T23:14:07.450Z,71.40
2022-11-18T23:16:38.934Z,71.50
2022-11-18T23:19:06.889Z,71.60
2022-11-18T23:21:33.621Z,72.20
2022-11-18T23:24:00.625Z,71.70
2022-11-18T23:26:28.747Z,71.70
2022-11-18T23:28:55.444Z,72.00
2022-11-18T23:31:23.699Z,72.00
2022-11-18T23:33:50.761Z,72.00
2022-11-18T23:36:18.503Z,72.20
2022-11-18T23:38:45.548Z,72.40
2022-11-18T23:41:13.061Z,72.40
2022-11-18T23:43:39.776Z,72.40
2022-11-18T23:46:07.287Z,72.30
2022-11-18T23:48:37.685Z,72.50
2022-11-18T23:51:04.289Z,72.60
2022-11-18T23:53:31.325Z,72.50
2022-11-18T23:55:58.063Z,72.20
2022-11-18T23:58:24.625Z,72.40
